Time;durP1;ratioP1;P1;durP2;ratioP2;P2;SDS_P1;SDS_P2;PMS_P1;PMS_P2;Temp;Humidity;BMP_temperature;BMP_pressure;BME280_temperature;BME280_humidity;BME280_pressure;Samples;Min_cycle;Max_cycle;Signal;HPM_P1;HPM_P2
2021/12/14 00:03:28;;;;;;;39.90;16.10;;;-1.80;99.90;;;-4.33;97.64;101075.19;10347104;28;96528;-77
2021/12/14 00:08:36;;;;;;;39.27;16.60;;;-1.80;99.90;;;-4.29;97.42;101062.13;10387023;28;96586;-77
2021/12/14 00:18:43;;;;;;;39.07;16.40;;;-1.80;99.90;;;-4.22;97.67;101077.44;10401396;28;97553;-76
2021/12/14 00:24:07;;;;;;;43.90;18.23;;;-1.80;99.90;;;-4.23;97.81;101075.75;10409717;28;98290;-76
2021/12/14 00:29:28;;;;;;;32.53;14.77;;;-1.80;99.90;;;-4.26;97.90;101080.19;10382417;28;96592;-76
2021/12/14 00:34:41;;;;;;;35.07;14.00;;;-1.80;99.90;;;-4.29;98.07;101080.31;10369762;28;96659;-77
2021/12/14 00:39:46;;;;;;;25.17;11.67;;;-1.80;99.90;;;-4.21;98.15;101086.91;10350681;28;96548;-76
2021/12/14 00:44:49;;;;;;;23.73;10.00;;;-1.80;99.90;;;-4.17;98.28;101083.31;10393788;28;96772;-76
2021/12/14 00:49:54;;;;;;;23.00;9.97;;;-1.80;99.90;;;-4.14;98.23;101090.16;10383474;28;96609;-76
2021/12/14 00:54:58;;;;;;;21.90;10.93;;;-1.80;99.90;;;-4.18;98.32;101110.19;10365966;28;96698;-76
2021/12/14 01:00:01;;;;;;;25.23;11.33;;;-1.80;99.90;;;-4.27;98.30;101100.09;10401450;28;96632;-76
2021/12/14 01:05:19;;;;;;;72.10;17.50;;;-1.80;99.90;;;-4.37;97.86;101104.78;10361470;28;96532;-76
2021/12/14 01:10:38;;;;;;;29.53;13.00;;;-1.80;99.90;;;-4.46;98.18;101109.41;10372071;28;96687;-77
2021/12/14 01:16:14;;;;;;;32.43;12.03;;;-1.90;99.90;;;-4.57;98.01;101112.34;10411745;28;96469;-77
2021/12/14 01:26:40;;;;;;;20.40;9.13;;;-2.10;99.90;;;-4.77;97.89;101107.81;10367435;28;97914;-77
2021/12/14 01:31:47;;;;;;;20.60;9.30;;;-2.20;99.90;;;-4.83;97.96;101109.75;10362258;28;96481;-77
2021/12/14 01:36:56;;;;;;;24.63;9.47;;;-2.30;99.90;;;-4.81;98.28;101120.91;10382107;28;96558;-77
2021/12/14 01:42:15;;;;;;;20.47;8.00;;;-2.30;99.90;;;-4.84;98.27;101114.06;10376724;28;96482;-77
2021/12/14 01:47:39;;;;;;;17.07;7.63;;;-2.30;99.90;;;-4.86;98.20;101098.59;10348968;28;98262;-77
2021/12/14 01:52:42;;;;;;;18.03;8.03;;;-2.30;99.90;;;-4.88;98.15;101092.56;10360720;28;96648;-77
2021/12/14 01:57:47;;;;;;;31.23;11.07;;;-2.40;99.90;;;-4.89;98.36;101090.03;10360942;28;96622;-77
2021/12/14 02:02:50;;;;;;;42.80;14.57;;;-2.40;99.90;;;-4.84;98.56;101090.75;10352939;28;96797;-77
2021/12/14 02:07:57;;;;;;;40.57;14.93;;;-2.40;99.90;;;-4.86;98.44;101082.16;10367704;28;96617;-77
2021/12/14 02:13:01;;;;;;;25.13;9.90;;;-2.40;99.90;;;-4.94;98.21;101089.31;10367929;28;96858;-77
2021/12/14 02:18:16;;;;;;;42.00;11.93;;;-2.50;99.90;;;-4.98;98.34;101100.69;10391072;28;96507;-77
2021/12/14 02:23:20;;;;;;;43.50;12.80;;;-2.50;99.90;;;-4.98;98.23;101092.91;10392104;28;96561;-77
2021/12/14 02:28:23;;;;;;;38.67;11.87;;;-2.50;99.90;;;-5.00;98.28;101098.13;10366231;28;97675;-77
2021/12/14 02:33:32;;;;;;;22.83;8.77;;;-2.60;99.90;;;-5.07;98.26;101095.78;10360543;28;96519;-77
2021/12/14 02:38:41;;;;;;;61.67;16.67;;;-2.60;99.90;;;-5.09;98.53;101100.19;10342141;28;96631;-77
2021/12/14 02:43:55;;;;;;;57.30;18.17;;;-2.60;99.90;;;-5.10;98.76;101101.91;10356588;28;96940;-77
2021/12/14 02:49:08;;;;;;;50.57;15.53;;;-2.60;99.90;;;-5.13;98.31;101108.03;10356000;28;96722;-77
2021/12/14 02:54:17;;;;;;;42.30;14.17;;;-2.70;99.90;;;-5.22;98.55;101103.16;10392672;28;96546;-77
2021/12/14 02:59:26;;;;;;;36.77;13.03;;;-2.70;99.90;;;-5.30;98.45;101097.31;10373995;28;96518;-77
2021/12/14 03:04:33;;;;;;;30.40;10.97;;;-2.80;99.90;;;-5.37;98.51;101103.59;10412303;27;96531;-77
2021/12/14 03:09:54;;;;;;;32.77;11.87;;;-2.90;99.90;;;-5.44;98.59;101107.25;10396600;28;96653;-77
2021/12/14 03:15:08;;;;;;;27.15;9.93;;;-2.90;99.90;;;-5.49;98.53;101111.72;10380816;28;97146;-77
2021/12/14 03:20:26;;;;;;;22.93;9.27;;;-3.00;99.90;;;-5.57;98.56;101100.72;10412948;28;96418;-77
2021/12/14 03:25:31;;;;;;;41.90;12.57;;;-3.10;99.90;;;-5.60;98.46;101099.06;10370150;28;97011;-77
2021/12/14 03:31:12;;;;;;;32.37;10.57;;;-3.10;99.90;;;-5.61;98.68;101099.13;10355291;28;97013;-77
2021/12/14 03:36:42;;;;;;;32.00;12.20;;;-3.10;99.90;;;-5.59;98.69;101097.31;10354926;28;96528;-77
2021/12/14 03:42:10;;;;;;;29.97;12.73;;;-3.10;99.90;;;-5.58;98.37;101105.03;10336531;28;96623;-77
2021/12/14 03:47:40;;;;;;;26.87;11.90;;;-3.10;99.90;;;-5.62;98.89;101102.59;10361793;28;97874;-77
2021/12/14 03:52:43;;;;;;;52.13;18.87;;;-3.20;99.90;;;-5.70;98.92;101093.31;10385692;28;97520;-77
2021/12/14 03:57:47;;;;;;;40.40;15.37;;;-3.20;99.90;;;-5.74;98.64;101107.22;10388606;28;96595;-77
2021/12/14 04:02:55;;;;;;;37.40;12.93;;;-3.20;99.90;;;-5.81;98.51;101113.47;10373593;28;96543;-77
2021/12/14 04:08:01;;;;;;;32.30;11.83;;;-3.30;99.90;;;-5.88;98.79;101117.09;10368991;28;96524;-77
2021/12/14 04:13:06;;;;;;;41.70;15.13;;;-3.30;99.90;;;-5.95;98.75;101110.41;10396423;28;96517;-77
2021/12/14 04:18:10;;;;;;;29.27;12.13;;;-3.40;99.90;;;-6.03;98.64;101108.03;10378315;28;96626;-77
2021/12/14 04:23:25;;;;;;;31.17;11.90;;;-3.50;99.90;;;-6.07;98.42;101113.31;10378983;28;97612;-77
2021/12/14 04:28:36;;;;;;;35.67;10.20;;;-3.50;99.90;;;-6.11;98.97;101111.72;10377602;28;97870;-77
2021/12/14 04:33:46;;;;;;;35.42;13.07;;;-3.60;99.90;;;-6.14;98.98;101102.28;10411088;28;97278;-77
2021/12/14 04:38:59;;;;;;;32.40;11.43;;;-3.60;99.90;;;-6.16;98.61;101109.25;10357206;28;98409;-76
2021/12/14 04:55:06;;;;;;;35.50;13.83;;;-3.70;99.90;;;-6.27;99.12;101112.13;10373639;28;96594;-78
2021/12/14 05:00:29;;;;;;;42.00;16.80;;;-3.70;99.90;;;-6.31;99.01;101120.81;10415644;28;96570;-78
2021/12/14 05:05:45;;;;;;;33.43;12.23;;;-3.80;99.90;;;-6.36;98.86;101133.03;10363623;28;96550;-78
2021/12/14 05:11:04;;;;;;;43.23;15.00;;;-3.80;99.90;;;-6.39;99.17;101130.53;10383844;28;96577;-78
2021/12/14 05:16:08;;;;;;;49.63;15.40;;;-3.80;99.90;;;-6.46;99.02;101131.56;10370059;28;96573;-78
2021/12/14 05:21:11;;;;;;;85.63;28.93;;;-3.90;99.90;;;-6.49;98.67;101134.22;10360440;28;96837;-78
2021/12/14 05:26:15;;;;;;;47.93;15.90;;;-4.00;99.90;;;-6.52;98.43;101144.66;10379112;28;96811;-77
2021/12/14 05:31:19;;;;;;;50.50;17.63;;;-4.00;99.90;;;-6.54;98.44;101143.81;10393949;28;98006;-77
2021/12/14 05:36:24;;;;;;;59.07;18.13;;;-4.10;99.90;;;-6.55;98.94;101148.13;10362110;28;96721;-78
2021/12/14 05:46:53;;;;;;;56.10;16.80;;;-4.10;99.90;;;-6.57;98.77;101147.34;10386848;28;98142;-78
2021/12/14 05:51:59;;;;;;;60.47;20.07;;;-4.10;99.90;;;-6.62;99.08;101149.19;10399477;28;96562;-78
2021/12/14 05:57:05;;;;;;;52.20;20.03;;;-4.10;99.90;;;-6.64;98.73;101163.88;10375209;28;96549;-79
2021/12/14 06:02:10;;;;;;;73.47;25.27;;;-4.10;99.90;;;-6.68;98.74;101154.50;10379609;28;96659;-78
2021/12/14 06:07:19;;;;;;;48.87;18.97;;;-4.20;99.90;;;-6.69;98.85;101163.13;10376790;28;96551;-78
2021/12/14 06:12:28;;;;;;;67.27;25.97;;;-4.20;99.90;;;-6.71;99.27;101158.91;10357593;28;96568;-78
2021/12/14 06:17:39;;;;;;;69.20;25.77;;;-4.20;99.90;;;-6.74;99.01;101178.75;10360230;28;96476;-77
2021/12/14 06:22:44;;;;;;;80.03;28.20;;;-4.20;99.90;;;-6.77;99.03;101171.06;10368748;28;96551;-77
2021/12/14 06:27:49;;;;;;;51.60;22.27;;;-4.30;99.90;;;-6.77;99.52;101181.41;10362817;28;96558;-78
2021/12/14 06:33:03;;;;;;;50.73;18.53;;;-4.20;99.90;;;-6.75;99.28;101174.47;10396118;28;96745;-77
2021/12/14 06:43:54;;;;;;;48.20;19.73;;;-4.20;99.90;;;-6.55;99.38;101178.31;10376965;28;96995;-78
2021/12/14 06:49:03;;;;;;;92.93;27.60;;;-4.10;99.90;;;-6.44;99.47;101180.66;10414851;28;96446;-76
2021/12/14 06:54:17;;;;;;;76.23;27.87;;;-4.10;99.90;;;-6.38;99.33;101185.69;10413055;28;96637;-76
2021/12/14 06:59:20;;;;;;;79.90;27.17;;;-4.00;99.90;;;-6.32;99.68;101181.22;10389544;28;96567;-76
2021/12/14 07:04:31;;;;;;;43.50;18.50;;;-3.90;99.90;;;-6.28;99.53;101189.75;10376908;28;97140;-76
2021/12/14 07:09:43;;;;;;;68.20;27.73;;;-3.90;99.90;;;-6.26;99.52;101178.47;10357050;28;96439;-75
2021/12/14 07:14:59;;;;;;;90.57;29.40;;;-3.90;99.90;;;-6.22;99.83;101182.69;10362971;28;96637;-78
2021/12/14 07:20:11;;;;;;;73.73;25.00;;;-3.80;99.90;;;-6.15;99.85;101190.31;10357061;28;98137;-76
2021/12/14 07:25:30;;;;;;;80.10;28.70;;;-3.80;99.90;;;-6.05;99.85;101195.22;10389415;28;96627;-76
2021/12/14 07:30:47;;;;;;;54.70;22.50;;;-3.70;99.90;;;-5.79;100.00;101197.09;10395411;28;96577;-76
2021/12/14 07:36:00;;;;;;;69.00;27.83;;;-3.60;99.90;;;-5.28;100.00;101183.63;10391389;28;96531;-76
2021/12/14 07:41:36;;;;;;;51.67;19.80;;;-3.30;99.90;;;-4.67;100.00;101183.59;10401935;28;96525;-76
2021/12/14 07:46:57;;;;;;;33.27;15.10;;;-3.00;99.90;;;-4.06;100.00;101177.28;10337733;28;96557;-76
2021/12/14 07:52:19;;;;;;;81.00;34.63;;;-2.50;99.90;;;-3.53;100.00;101181.53;10392820;28;97063;-76
2021/12/14 07:57:32;;;;;;;55.88;22.08;;;-2.10;99.90;;;-3.16;100.00;101186.25;10371769;28;96586;-76
2021/12/14 08:02:40;;;;;;;90.63;36.83;;;-1.70;99.90;;;-3.14;99.89;101189.63;10364439;28;96500;-76
2021/12/14 08:08:19;;;;;;;38.13;16.67;;;-1.50;99.90;;;-3.21;99.41;101197.72;10369747;28;96548;-76
2021/12/14 08:13:25;;;;;;;62.07;22.27;;;-1.40;99.90;;;-3.35;99.05;101188.66;10354812;28;96527;-76
2021/12/14 08:18:34;;;;;;;61.47;20.73;;;-1.30;99.90;;;-3.43;99.06;101179.44;10372444;28;96476;-77
2021/12/14 08:23:50;;;;;;;62.37;21.37;;;-1.30;99.90;;;-3.42;98.33;101186.31;10387672;28;96537;-76
2021/12/14 08:29:07;;;;;;;61.97;21.53;;;-1.30;99.90;;;-3.40;98.60;101185.38;10361217;28;97626;-75
2021/12/14 08:34:18;;;;;;;53.17;18.80;;;-1.20;99.90;;;-3.36;98.44;101186.97;10390741;28;96548;-78
2021/12/14 08:39:33;;;;;;;58.37;20.60;;;-1.20;99.90;;;-3.28;98.56;101189.28;10368906;28;96645;-78
2021/12/14 08:44:40;;;;;;;128.33;50.57;;;-1.10;99.90;;;-3.19;98.29;101188.94;10373541;28;96598;-78
2021/12/14 08:49:43;;;;;;;67.17;24.97;;;-1.00;99.90;;;-3.11;98.40;101199.06;10374038;28;96778;-76
2021/12/14 08:54:46;;;;;;;56.17;24.27;;;-0.90;99.90;;;-3.02;98.32;101193.53;10352433;28;96786;-77
2021/12/14 09:00:01;;;;;;;69.30;28.00;;;-0.80;99.90;;;-2.98;98.22;101195.97;10398513;28;96567;-77
2021/12/14 09:05:26;;;;;;;58.20;21.50;;;-0.80;99.90;;;-2.87;98.18;101195.56;10386366;28;96550;-77
2021/12/14 09:10:33;;;;;;;78.40;34.85;;;-0.70;99.90;;;-2.80;98.13;101173.59;10360580;28;96632;-77
2021/12/14 09:15:44;;;;;;;90.90;37.63;;;-0.60;99.90;;;-2.63;98.13;101182.53;10360208;28;97156;-77
2021/12/14 09:20:55;;;;;;;72.18;28.70;;;-0.50;99.90;;;-2.50;97.99;101181.13;10377075;28;96758;-77
2021/12/14 09:25:58;;;;;;;58.47;28.30;;;-0.40;99.90;;;-2.45;98.23;101174.81;10357427;28;98118;-77
2021/12/14 09:31:08;;;;;;;46.03;20.07;;;-0.30;99.90;;;-2.42;98.09;101169.47;10400238;28;96438;-77
2021/12/14 09:36:13;;;;;;;162.67;55.70;;;-0.20;99.90;;;-2.43;97.81;101169.56;10358117;28;96579;-77
2021/12/14 09:41:21;;;;;;;49.53;22.87;;;-0.20;99.90;;;-2.43;97.79;101170.41;10358915;28;96967;-77
2021/12/14 09:46:26;;;;;;;44.80;19.77;;;-0.20;99.90;;;-2.46;97.82;101167.06;10376004;28;96488;-78
2021/12/14 09:51:45;;;;;;;44.50;22.57;;;-0.20;99.90;;;-2.47;97.61;101155.81;10362531;28;96540;-78
2021/12/14 09:57:09;;;;;;;47.37;22.73;;;-0.20;99.90;;;-2.46;97.88;101152.31;10393916;28;97305;-78
2021/12/14 10:02:34;;;;;;;46.30;20.70;;;-0.20;99.90;;;-2.44;97.78;101154.84;10385711;28;96606;-78
2021/12/14 10:07:38;;;;;;;43.00;18.73;;;-0.20;99.90;;;-2.38;97.77;101148.56;10382619;28;96622;-78
2021/12/14 10:12:49;;;;;;;41.97;21.17;;;-0.10;99.90;;;-2.32;97.65;101151.75;10389505;28;96564;-78
2021/12/14 10:17:58;;;;;;;60.77;30.13;;;-0.10;99.90;;;-2.24;98.04;101146.22;10374631;28;97620;-78
2021/12/14 10:23:02;;;;;;;57.87;24.13;;;0.00;99.90;;;-2.16;97.70;101144.13;10344044;28;96496;-78
2021/12/14 10:28:08;;;;;;;57.07;25.40;;;0.10;99.90;;;-2.12;97.86;101127.47;10372272;28;96570;-78
2021/12/14 10:33:12;;;;;;;48.27;23.77;;;0.10;99.90;;;-2.08;97.85;101136.88;10388172;28;96602;-78
2021/12/14 10:38:26;;;;;;;54.63;22.80;;;0.20;99.90;;;-2.05;97.57;101139.31;10374489;28;96652;-78
2021/12/14 10:43:30;;;;;;;41.60;18.43;;;0.20;99.90;;;-1.99;97.66;101135.63;10378705;28;96772;-78
2021/12/14 10:48:39;;;;;;;54.30;26.17;;;0.30;99.90;;;-1.73;97.53;101124.94;10397629;28;96994;-78
2021/12/14 10:53:47;;;;;;;36.57;19.63;;;0.50;99.90;;;-1.42;97.13;101129.63;10383766;28;96562;-78
2021/12/14 10:59:14;;;;;;;40.77;20.13;;;0.80;99.90;;;-1.33;96.97;101130.13;10389285;28;96622;-79
2021/12/14 11:04:33;;;;;;;39.10;20.73;;;0.90;99.90;;;-1.30;96.62;101124.78;10356186;28;96442;-78
2021/12/14 11:14:43;;;;;;;39.70;20.23;;;1.00;99.90;;;-1.24;96.50;101108.88;10373511;28;96589;-79
2021/12/14 11:19:59;;;;;;;46.80;22.00;;;1.00;99.90;;;-1.20;96.67;101110.41;10356183;28;97068;-79
2021/12/14 11:25:16;;;;;;;52.87;26.13;;;1.10;99.90;;;-1.18;96.15;101106.81;10355048;28;96580;-78
2021/12/14 11:30:28;;;;;;;46.17;22.47;;;1.10;99.90;;;-1.14;96.39;101107.50;10395958;28;98042;-79
2021/12/14 11:35:40;;;;;;;46.27;21.83;;;1.20;99.90;;;-1.09;96.20;101092.50;10379314;28;96521;-79
2021/12/14 11:40:43;;;;;;;49.47;22.23;;;1.20;99.90;;;-1.06;96.51;101108.00;10371249;28;96485;-79
2021/12/14 11:45:48;;;;;;;57.83;25.77;;;1.30;99.90;;;-1.03;96.31;101105.25;10395874;28;96568;-79
2021/12/14 11:50:54;;;;;;;59.47;23.63;;;1.30;99.90;;;-0.99;96.09;101098.13;10396847;28;96654;-79
2021/12/14 11:56:07;;;;;;;49.33;23.40;;;1.30;99.90;;;-0.95;96.30;101095.31;10378510;28;96609;-79
2021/12/14 12:02:00;;;;;;;51.17;24.77;;;1.40;99.90;;;-0.90;96.41;101088.13;10380897;28;96576;-79
2021/12/14 12:12:25;;;;;;;63.30;28.13;;;1.50;99.90;;;-0.82;96.61;101082.53;10398097;28;96524;-79
2021/12/14 12:17:42;;;;;;;49.08;23.65;;;1.50;99.90;;;-0.77;96.34;101079.72;10398104;28;96545;-77
2021/12/14 12:22:57;;;;;;;55.00;25.03;;;1.60;99.90;;;-0.71;96.30;101079.41;10384551;28;96518;-79
2021/12/14 12:28:08;;;;;;;55.60;24.27;;;1.70;99.90;;;-0.67;96.63;101081.78;10345284;28;96604;-79
2021/12/14 12:33:21;;;;;;;63.97;26.33;;;1.70;99.90;;;-0.63;96.82;101083.31;10360394;28;96954;-79
2021/12/14 12:38:32;;;;;;;72.67;30.50;;;1.70;99.90;;;-0.62;96.65;101094.59;10358248;28;96577;-79
2021/12/14 12:44:06;;;;;;;68.17;28.97;;;1.70;99.90;;;-0.63;96.79;101083.31;10350277;28;96932;-79
2021/12/14 12:49:36;;;;;;;68.53;29.57;;;1.80;99.90;;;-0.65;96.89;101085.16;10417642;28;96797;-79
2021/12/14 12:55:00;;;;;;;71.73;29.87;;;1.70;99.90;;;-0.66;96.75;101083.50;10382445;28;96646;-79
2021/12/14 13:00:52;;;;;;;61.17;27.47;;;1.70;99.90;;;-0.68;97.04;101071.41;10379576;28;97491;-79
2021/12/14 13:06:22;;;;;;;57.73;24.37;;;1.70;99.90;;;-0.65;96.80;101066.06;10263993;28;97788;-79
2021/12/14 13:11:36;;;;;;;51.97;23.70;;;1.70;99.90;;;-0.66;97.08;101075.66;10390678;28;96723;-79
2021/12/14 13:16:46;;;;;;;55.70;24.20;;;1.70;99.90;;;-0.66;97.10;101085.22;10370696;28;96511;-79
2021/12/14 13:22:03;;;;;;;51.63;23.27;;;1.70;99.90;;;-0.68;97.15;101081.84;10360368;28;96493;-79
2021/12/14 13:27:25;;;;;;;46.87;23.00;;;1.70;99.90;;;-0.69;97.53;101077.56;10360048;28;96531;-78
2021/12/14 13:32:35;;;;;;;43.42;19.23;;;1.70;99.90;;;-0.70;97.14;101081.94;10360086;28;96444;-78
2021/12/14 13:37:54;;;;;;;69.57;30.40;;;1.70;99.90;;;-0.71;97.10;101082.00;10356795;28;96650;-78
2021/12/14 13:43:23;;;;;;;67.93;30.43;;;1.70;99.90;;;-0.70;97.58;101084.53;10359627;28;96622;-78
2021/12/14 13:48:34;;;;;;;73.10;32.83;;;1.70;99.90;;;-0.69;97.43;101086.22;10406948;27;96603;-78
2021/12/14 13:53:38;;;;;;;66.47;31.93;;;1.70;99.90;;;-0.72;97.41;101088.13;10400030;28;96629;-78
2021/12/14 13:58:56;;;;;;;70.10;31.50;;;1.60;99.90;;;-0.78;97.19;101091.91;10377375;28;97204;-78
2021/12/14 14:04:05;;;;;;;69.50;31.03;;;1.60;99.90;;;-0.86;97.47;101083.59;10401904;28;96748;-78
2021/12/14 14:09:40;;;;;;;73.13;34.13;;;1.50;99.90;;;-0.95;97.44;101084.88;10373876;28;96666;-78
2021/12/14 14:14:44;;;;;;;65.53;29.17;;;1.40;99.90;;;-1.02;97.20;101091.31;10378790;28;96955;-78
2021/12/14 14:20:06;;;;;;;79.37;36.90;;;1.40;99.90;;;-1.11;97.30;101086.50;10357574;28;96564;-78
2021/12/14 14:25:22;;;;;;;68.33;30.83;;;1.30;99.90;;;-1.18;97.11;101087.72;10379027;28;96708;-79
2021/12/14 14:30:50;;;;;;;71.90;32.20;;;1.20;99.90;;;-1.30;97.54;101086.53;10366442;28;97021;-79
2021/12/14 14:36:13;;;;;;;74.17;32.17;;;1.10;99.90;;;-1.39;97.56;101100.81;10378437;28;96627;-79
2021/12/14 14:41:18;;;;;;;71.13;32.95;;;0.90;99.90;;;-1.49;97.54;101094.34;10371990;28;96529;-78
2021/12/14 14:46:54;;;;;;;65.40;29.33;;;0.80;99.90;;;-1.55;97.19;101094.63;10391476;28;98083;-78
2021/12/14 14:52:23;;;;;;;90.07;37.70;;;0.80;99.90;;;-1.61;97.09;101110.53;10361400;28;99172;-78
2021/12/14 14:57:26;;;;;;;118.97;46.63;;;0.70;99.90;;;-1.70;97.17;101110.91;10378568;28;96521;-79
2021/12/14 15:02:35;;;;;;;122.93;53.20;;;0.60;99.90;;;-1.76;97.49;101116.41;10380939;28;98375;-78
2021/12/14 15:08:11;;;;;;;155.40;59.87;;;0.50;99.90;;;-1.83;97.44;101108.00;10398392;28;97567;-78
2021/12/14 15:13:30;;;;;;;135.07;50.60;;;0.40;99.90;;;-1.88;97.20;101112.56;10386424;28;96533;-78
2021/12/14 15:19:00;;;;;;;84.23;35.37;;;0.30;99.90;;;-1.94;97.37;101100.66;10364895;28;98099;-78
2021/12/14 15:24:25;;;;;;;84.57;36.53;;;0.20;99.90;;;-2.00;97.46;101107.88;10393148;28;96611;-78
2021/12/14 15:29:29;;;;;;;97.47;37.33;;;0.20;99.90;;;-2.05;97.66;101113.28;10355697;28;96578;-78
2021/12/14 15:35:14;;;;;;;72.73;31.03;;;0.10;99.90;;;-2.06;97.52;101114.19;10370912;28;96480;-78
2021/12/14 15:40:32;;;;;;;74.70;30.97;;;0.10;99.90;;;-2.09;97.38;101113.50;10356516;28;96539;-78
2021/12/14 15:45:37;;;;;;;70.37;29.90;;;0.10;99.90;;;-2.13;97.37;101117.97;10398048;28;96515;-78
2021/12/14 15:51:19;;;;;;;78.63;40.47;;;0.00;99.90;;;-2.17;97.38;101119.84;10372434;28;98390;-78
2021/12/14 15:56:30;;;;;;;71.17;35.30;;;0.00;99.90;;;-2.22;97.11;101124.44;10352730;28;96570;-78
2021/12/14 16:01:42;;;;;;;76.03;32.97;;;-0.10;99.90;;;-2.29;97.28;101117.75;10371602;28;97701;-78
2021/12/14 16:06:53;;;;;;;83.80;36.23;;;-0.20;99.90;;;-2.34;97.12;101124.94;10379044;28;96691;-78
2021/12/14 16:17:51;;;;;;;57.73;27.60;;;-0.20;99.90;;;-2.53;97.02;101134.38;10387848;28;97254;-78
2021/12/14 16:22:59;;;;;;;55.85;27.55;;;-0.30;99.90;;;-2.62;97.21;101129.56;10391654;28;98144;-78
2021/12/14 16:28:10;;;;;;;60.70;29.93;;;-0.40;99.90;;;-2.68;97.17;101127.22;10368322;28;96640;-78
2021/12/14 16:33:32;;;;;;;75.22;35.05;;;-0.50;99.90;;;-2.77;97.05;101124.03;10394769;28;96826;-78
2021/12/14 16:38:46;;;;;;;80.03;35.67;;;-0.50;99.90;;;-2.86;96.93;101121.81;10383943;28;97824;-78
2021/12/14 16:44:08;;;;;;;77.93;36.43;;;-0.60;99.90;;;-2.96;96.94;101129.13;10396643;28;96629;-78
2021/12/14 16:49:18;;;;;;;81.85;35.05;;;-0.60;99.90;;;-3.01;97.02;101138.00;10378382;28;96735;-78
2021/12/14 16:54:24;;;;;;;91.93;34.30;;;-0.70;99.90;;;-3.08;97.16;101131.34;10382652;28;97307;-77
2021/12/14 16:59:35;;;;;;;100.50;36.40;;;-0.70;99.90;;;-3.11;97.20;101140.13;10391835;28;96702;-77
2021/12/14 17:04:40;;;;;;;;;;;-0.70;99.90;;;-3.14;97.20;101141.97;10397766;28;96707;-77
2021/12/14 17:09:43;;;;;;;68.90;27.33;;;-0.80;99.90;;;-3.18;97.49;101143.84;10400745;28;98230;-77
2021/12/14 17:15:03;;;;;;;94.57;37.33;;;-0.80;99.90;;;-3.14;97.65;101132.41;10395391;28;98241;-79
2021/12/14 17:20:10;;;;;;;102.67;40.97;;;-0.80;99.90;;;-3.07;97.50;101135.63;10402958;27;96664;-80
2021/12/14 17:25:22;;;;;;;112.60;46.93;;;-0.70;99.90;;;-3.04;98.04;101135.53;10362260;28;96755;-79
2021/12/14 17:30:28;;;;;;;;;;;-0.70;99.90;;;-3.03;97.87;101145.03;10396593;28;96886;-78
2021/12/14 17:35:34;;;;;;;91.90;38.97;;;-0.70;99.90;;;-3.05;97.91;101158.09;10396627;28;96667;-79
2021/12/14 17:40:43;;;;;;;87.57;33.10;;;-0.70;99.90;;;-3.04;98.13;101158.94;10381282;28;96969;-79
2021/12/14 17:45:48;;;;;;;77.03;30.73;;;-0.70;99.90;;;-3.05;98.01;101157.25;10383031;28;98212;-79
2021/12/14 17:51:04;;;;;;;74.67;33.50;;;-0.70;99.90;;;-3.08;98.18;101160.78;10378139;28;97589;-79
2021/12/14 17:56:09;;;;;;;74.17;30.40;;;-0.80;99.90;;;-3.11;98.22;101158.31;10396441;28;96696;-77
2021/12/14 18:01:19;;;;;;;72.63;34.03;;;-0.70;99.90;;;-3.11;98.50;101158.31;10384931;28;96547;-77
2021/12/14 18:06:29;;;;;;;85.53;36.50;;;-0.80;99.90;;;-3.11;98.56;101170.47;10381537;28;98244;-77
2021/12/14 18:11:41;;;;;;;71.73;30.10;;;-0.80;99.90;;;-3.16;98.64;101172.41;10383301;28;96620;-77
2021/12/14 18:16:52;;;;;;;65.93;28.50;;;-0.80;99.90;;;-3.20;98.53;101178.59;10387392;28;97851;-77
2021/12/14 18:22:01;;;;;;;73.50;33.17;;;-0.80;99.90;;;-3.24;98.34;101188.25;10373922;28;96527;-78
2021/12/14 18:27:22;;;;;;;84.47;32.47;;;-0.90;99.90;;;-3.28;98.70;101189.28;10391327;28;97106;-78
2021/12/14 18:32:30;;;;;;;53.80;22.60;;;-0.90;99.90;;;-3.33;98.34;101196.41;10377130;28;96712;-77
2021/12/14 18:37:41;;;;;;;71.77;29.60;;;-1.00;99.90;;;-3.35;98.77;101200.81;10383483;28;96617;-77
2021/12/14 18:42:48;;;;;;;85.77;32.83;;;-1.00;99.90;;;-3.40;98.66;101198.38;10390518;28;98406;-77
2021/12/14 18:53:20;;;;;;;74.13;29.37;;;-1.10;99.90;;;-3.49;98.86;101196.09;10403755;28;98068;-80
2021/12/14 18:58:33;;;;;;;75.67;30.63;;;-1.10;99.90;;;-3.52;99.00;101212.66;10378370;28;98614;-81
2021/12/14 19:03:48;;;;;;;86.43;38.13;;;-1.10;99.90;;;-3.47;99.04;101201.25;10370306;28;98814;-81
2021/12/14 19:09:05;;;;;;;116.63;50.60;;;-1.10;99.90;;;-3.39;99.29;101204.41;10385085;28;97106;-81
2021/12/14 19:14:12;;;;;;;157.67;66.63;;;-1.10;99.90;;;-3.27;99.40;101189.22;10361686;28;97478;-84
2021/12/14 19:19:22;;;;;;;125.03;54.73;;;-1.00;99.90;;;-3.12;99.30;101199.97;10379687;28;98605;-80
2021/12/14 19:24:27;;;;;;;135.60;63.77;;;-0.90;99.90;;;-2.99;99.61;101190.81;10389820;28;98138;-79
2021/12/14 19:29:44;;;;;;;113.23;53.50;;;-0.80;99.90;;;-2.96;99.44;101201.94;10375325;28;98458;-78
2021/12/14 19:34:55;;;;;;;113.40;54.17;;;-0.70;99.90;;;-2.94;99.54;101198.44;10395999;28;96925;-77
2021/12/14 19:40:10;;;;;;;104.78;49.05;;;-0.60;99.90;;;-2.99;99.58;101201.22;10385588;28;97991;-79
2021/12/14 19:45:15;;;;;;;102.53;48.57;;;-0.60;99.90;;;-3.08;99.65;101210.19;10389260;28;98281;-79
2021/12/14 19:50:25;;;;;;;96.77;44.17;;;-0.70;99.90;;;-3.15;99.40;101202.69;10394400;28;97866;-79
2021/12/14 19:55:33;;;;;;;122.27;46.40;;;-0.80;99.90;;;-3.20;99.54;101197.66;10386377;28;97887;-78
2021/12/14 20:00:48;;;;;;;126.83;46.53;;;-0.90;99.90;;;-3.22;99.75;101203.81;10376538;27;96700;-78
2021/12/14 20:06:00;;;;;;;99.07;39.97;;;-0.90;99.90;;;-3.26;99.52;101200.47;10385792;28;96608;-79
2021/12/14 20:11:11;;;;;;;98.30;42.87;;;-0.90;99.90;;;-3.32;99.61;101205.88;10390609;27;96666;-79
2021/12/14 20:16:25;;;;;;;98.83;41.70;;;-1.00;99.90;;;-3.42;99.64;101196.72;10382171;28;96593;-79
2021/12/14 20:21:35;;;;;;;109.40;39.93;;;-1.00;99.90;;;-3.53;99.60;101208.34;10380793;28;97819;-77
2021/12/14 20:27:06;;;;;;;76.63;36.73;;;-1.10;99.90;;;-3.61;99.58;101214.69;10374471;28;97745;-79
2021/12/14 20:32:30;;;;;;;90.17;36.37;;;-1.20;99.90;;;-3.69;99.79;101227.13;10388459;28;97993;-79
2021/12/14 20:37:35;;;;;;;91.10;40.53;;;-1.30;99.90;;;-3.78;100.00;101239.53;10375844;28;97782;-80
2021/12/14 20:43:06;;;;;;;100.37;40.63;;;-1.30;99.90;;;-3.83;99.91;101249.22;10382425;28;97374;-79
2021/12/14 20:48:20;;;;;;;106.47;42.27;;;-1.40;99.90;;;-3.83;99.75;101245.78;10358112;28;96604;-80
2021/12/14 20:53:24;;;;;;;110.97;44.23;;;-1.40;99.90;;;-3.78;100.00;101242.13;10383773;28;96854;-80
2021/12/14 20:58:56;;;;;;;89.90;36.03;;;-1.40;99.90;;;-3.62;100.00;101245.03;10386792;28;96686;-79
2021/12/14 21:04:05;;;;;;;108.05;46.65;;;-1.30;99.90;;;-3.45;99.99;101257.44;10386427;28;97501;-80
2021/12/14 21:09:17;;;;;;;88.80;37.50;;;-1.20;99.90;;;-3.33;100.00;101254.44;10379964;28;98424;-80
2021/12/14 21:14:25;;;;;;;93.15;41.75;;;-1.00;99.90;;;-3.21;100.00;101250.53;10400406;28;96653;-80
2021/12/14 21:19:42;;;;;;;75.83;37.63;;;-1.00;99.90;;;-3.08;100.00;101250.94;10383195;28;97245;-80
2021/12/14 21:25:21;;;;;;;93.53;42.87;;;-0.80;99.90;;;-2.96;100.00;101260.91;10400740;28;96608;-79
2021/12/14 21:30:35;;;;;;;124.77;56.87;;;-0.70;99.90;;;-2.85;100.00;101263.13;10367537;28;96624;-80
2021/12/14 21:35:59;;;;;;;133.13;56.57;;;-0.60;99.90;;;-2.74;100.00;101268.78;10374747;28;96775;-79
2021/12/14 21:41:37;;;;;;;138.07;58.77;;;-0.50;99.90;;;-2.67;100.00;101261.59;10388253;28;96618;-79
2021/12/14 21:46:51;;;;;;;129.23;53.90;;;-0.40;99.90;;;-2.61;100.00;101276.97;10391141;28;96678;-79
2021/12/14 21:52:21;;;;;;;121.43;56.23;;;-0.30;99.90;;;-2.57;100.00;101270.75;10372662;28;96817;-80
2021/12/14 21:57:45;;;;;;;111.97;51.20;;;-0.30;99.90;;;-2.53;100.00;101273.16;10386720;28;98110;-80
2021/12/14 22:02:52;;;;;;;117.10;56.17;;;-0.30;99.90;;;-2.51;100.00;101281.78;10377658;28;97009;-80